createdAt,value
2023-02-03T00:01:10.569Z,93.07
2023-02-03T00:03:38.020Z,93.05
2023-02-03T00:06:04.944Z,93.09
2023-02-03T00:08:32.352Z,93.11
2023-02-03T00:11:00.152Z,93.00
2023-02-03T00:13:27.151Z,93.13
2023-02-03T00:15:53.966Z,93.33
2023-02-03T00:18:20.741Z,93.55
2023-02-03T00:20:47.729Z,93.61
2023-02-03T00:23:14.641Z,93.77
2023-02-03T00:25:41.512Z,93.47
2023-02-03T00:28:08.698Z,93.54
2023-02-03T00:30:36.437Z,92.90
2023-02-03T00:33:04.930Z,92.79
2023-02-03T00:35:31.876Z,92.33
2023-02-03T00:37:59.074Z,92.27
2023-02-03T00:40:27.919Z,92.07
2023-02-03T00:42:55.142Z,92.22
2023-02-03T00:45:22.482Z,92.24
2023-02-03T00:47:49.266Z,92.06
2023-02-03T00:50:16.530Z,92.44
2023-02-03T00:52:43.334Z,92.22
2023-02-03T00:55:10.101Z,92.26
2023-02-03T00:57:36.890Z,92.90
2023-02-03T01:00:05.410Z,93.20
2023-02-03T01:02:32.241Z,93.18
2023-02-03T01:04:59.176Z,93.85
2023-02-03T01:07:26.030Z,93.94
2023-02-03T01:09:53.107Z,94.18
2023-02-03T01:12:19.880Z,93.88
2023-02-03T01:14:46.693Z,94.11
2023-02-03T01:17:13.577Z,94.24
2023-02-03T01:19:40.389Z,94.57
2023-02-03T01:22:07.201Z,94.32
2023-02-03T01:24:33.967Z,94.47
2023-02-03T01:27:00.742Z,94.06
2023-02-03T01:29:27.974Z,94.26
2023-02-03T01:31:54.864Z,94.33
2023-02-03T01:34:21.749Z,93.67
2023-02-03T01:36:49.772Z,93.80
2023-02-03T01:39:16.630Z,93.84
2023-02-03T01:41:43.838Z,93.61
2023-02-03T01:44:35.694Z,93.38
2023-02-03T01:47:03.963Z,93.37
2023-02-03T01:49:36.425Z,93.50
2023-02-03T01:52:05.249Z,93.29
2023-02-03T01:54:39.431Z,92.80
2023-02-03T01:57:21.091Z,92.06
2023-02-03T01:59:48.842Z,91.94
2023-02-03T02:02:15.949Z,92.04
2023-02-03T02:05:07.312Z,91.52
2023-02-03T02:07:37.613Z,91.52
2023-02-03T02:10:05.964Z,91.17
2023-02-03T02:12:32.891Z,90.57
2023-02-03T02:15:00.231Z,90.33
2023-02-03T02:17:33.053Z,90.35
2023-02-03T02:20:40.289Z,89.92
2023-02-03T02:23:36.938Z,90.01
2023-02-03T02:26:39.845Z,89.74
2023-02-03T02:29:35.559Z,89.70
2023-02-03T02:32:06.340Z,89.74
2023-02-03T02:34:54.767Z,89.58
2023-02-03T02:37:31.734Z,89.71
2023-02-03T02:40:08.008Z,89.65
2023-02-03T02:43:10.465Z,89.66
2023-02-03T02:45:50.069Z,90.23
2023-02-03T02:48:31.873Z,90.07
2023-02-03T02:51:00.629Z,90.30
2023-02-03T02:53:36.685Z,90.31
2023-02-03T02:56:10.219Z,90.53
2023-02-03T02:58:41.752Z,90.35
2023-02-03T03:01:09.975Z,91.12
2023-02-03T03:03:40.681Z,90.74
2023-02-03T03:06:26.627Z,90.81
2023-02-03T03:09:00.981Z,90.96
2023-02-03T03:11:34.257Z,91.08
2023-02-03T03:14:03.839Z,91.20
2023-02-03T03:16:35.472Z,91.24
2023-02-03T03:19:09.099Z,91.20
2023-02-03T03:21:48.081Z,91.13
2023-02-03T03:24:24.631Z,91.30
2023-02-03T03:26:59.487Z,91.22
2023-02-03T03:30:19.309Z,91.43
2023-02-03T03:32:46.836Z,90.99
2023-02-03T03:35:14.043Z,90.76
2023-02-03T03:37:58.993Z,90.48
2023-02-03T03:40:43.926Z,90.80
2023-02-03T03:43:26.776Z,90.99
2023-02-03T03:46:04.673Z,90.89
2023-02-03T03:49:00.959Z,91.23
2023-02-03T03:51:35.249Z,90.57
2023-02-03T03:54:08.984Z,90.55
2023-02-03T03:56:59.934Z,90.98
2023-02-03T03:59:32.081Z,91.25
2023-02-03T04:02:04.830Z,91.05
2023-02-03T04:04:34.555Z,91.43
2023-02-03T04:07:01.327Z,91.58
2023-02-03T04:09:28.887Z,91.35
2023-02-03T04:12:01.460Z,91.74
2023-02-03T04:14:30.603Z,91.60
2023-02-03T04:16:59.155Z,91.88
2023-02-03T04:19:26.918Z,91.52
2023-02-03T04:21:54.209Z,91.87
2023-02-03T04:24:21.070Z,91.78
2023-02-03T04:26:48.095Z,91.58
2023-02-03T04:29:15.279Z,91.63
2023-02-03T04:31:42.149Z,91.64
2023-02-03T04:34:09.154Z,91.53
2023-02-03T04:36:36.101Z,91.12
2023-02-03T04:39:03.391Z,91.22
2023-02-03T04:41:30.223Z,91.11
2023-02-03T04:43:57.049Z,91.47
2023-02-03T04:46:23.816Z,90.94
2023-02-03T04:48:50.587Z,91.00
2023-02-03T04:51:17.368Z,90.84
2023-02-03T04:53:44.133Z,90.73
2023-02-03T04:56:11.294Z,90.86
2023-02-03T04:58:38.162Z,91.05
2023-02-03T05:01:09.702Z,90.76
2023-02-03T05:03:36.653Z,90.88
2023-02-03T05:06:04.192Z,91.05
2023-02-03T05:08:31.360Z,90.86
2023-02-03T05:10:59.160Z,91.04
2023-02-03T05:13:27.650Z,91.37
2023-02-03T05:15:54.446Z,91.67
2023-02-03T05:18:21.439Z,91.34
2023-02-03T05:20:48.192Z,91.75
2023-02-03T05:23:15.107Z,92.13
2023-02-03T05:25:44.412Z,92.25
2023-02-03T05:28:11.265Z,92.25
2023-02-03T05:30:38.458Z,92.98
2023-02-03T05:33:05.274Z,92.71
2023-02-03T05:35:32.149Z,92.77
2023-02-03T05:37:59.617Z,92.43
2023-02-03T05:40:45.602Z,92.58
2023-02-03T05:43:12.582Z,92.81
2023-02-03T05:45:40.048Z,92.91
2023-02-03T05:48:07.595Z,92.57
2023-02-03T05:50:38.191Z,92.69
2023-02-03T05:53:07.463Z,92.50
2023-02-03T05:55:35.348Z,92.71
2023-02-03T05:58:02.247Z,92.92
2023-02-03T06:00:30.008Z,92.45
2023-02-03T06:03:00.145Z,92.63
2023-02-03T06:05:27.263Z,92.21
2023-02-03T06:07:54.336Z,92.67
2023-02-03T06:10:22.738Z,92.87
2023-02-03T06:12:50.289Z,92.87
2023-02-03T06:15:17.705Z,92.53
2023-02-03T06:17:49.153Z,93.10
2023-02-03T06:20:20.344Z,92.70
2023-02-03T06:22:47.165Z,93.14
2023-02-03T06:25:14.527Z,93.07
2023-02-03T06:27:42.472Z,93.32
2023-02-03T06:30:12.499Z,93.20
2023-02-03T06:32:39.318Z,93.91
2023-02-03T06:35:06.688Z,93.90
2023-02-03T06:37:33.903Z,93.42
2023-02-03T06:40:00.822Z,94.14
2023-02-03T06:42:27.602Z,94.19
2023-02-03T06:44:55.212Z,94.36
2023-02-03T06:47:22.054Z,94.80
2023-02-03T06:49:49.477Z,94.70
2023-02-03T06:52:16.311Z,94.88
2023-02-03T06:54:43.086Z,95.76
2023-02-03T06:57:09.837Z,95.29
2023-02-03T06:59:36.658Z,95.61
2023-02-03T07:02:04.303Z,96.31
2023-02-03T07:04:31.075Z,96.55
2023-02-03T07:06:57.928Z,96.15
2023-02-03T07:09:24.820Z,96.37
2023-02-03T07:11:51.600Z,96.50
2023-02-03T07:14:18.572Z,96.97
2023-02-03T07:16:45.359Z,97.17
2023-02-03T07:19:12.282Z,97.47
2023-02-03T07:21:39.057Z,97.96
2023-02-03T07:24:06.065Z,98.36
2023-02-03T07:26:32.865Z,98.29
2023-02-03T07:29:00.950Z,98.50
2023-02-03T07:31:28.390Z,98.45
2023-02-03T07:33:55.274Z,98.46
2023-02-03T07:36:22.091Z,98.42
2023-02-03T07:38:48.862Z,98.98
2023-02-03T07:41:17.979Z,98.94
2023-02-03T07:43:45.280Z,99.21
2023-02-03T07:46:12.343Z,99.75
2023-02-03T07:48:39.323Z,99.75
2023-02-03T07:51:06.315Z,99.63
2023-02-03T07:53:33.306Z,99.58
2023-02-03T07:56:05.594Z,100.00
2023-02-03T07:58:32.886Z,100.00
2023-02-03T08:01:00.532Z,100.00
2023-02-03T08:03:27.350Z,100.00
2023-02-03T08:05:54.205Z,100.00
2023-02-03T08:08:21.288Z,100.00
2023-02-03T08:10:48.374Z,100.00
2023-02-03T08:13:15.243Z,100.00
2023-02-03T08:15:42.064Z,100.00
2023-02-03T08:18:09.862Z,100.00
2023-02-03T08:20:36.663Z,100.00
2023-02-03T08:23:03.808Z,100.00
2023-02-03T08:25:31.459Z,100.00
2023-02-03T08:27:58.756Z,100.00
2023-02-03T08:30:26.792Z,100.00
2023-02-03T08:32:53.745Z,100.00
2023-02-03T08:35:20.536Z,100.00
2023-02-03T08:37:47.437Z,100.00
2023-02-03T08:40:14.451Z,100.00
2023-02-03T08:42:41.624Z,100.00
2023-02-03T08:45:09.038Z,100.00
2023-02-03T08:47:37.265Z,100.00
2023-02-03T08:50:07.811Z,100.00
2023-02-03T08:52:34.984Z,100.00
2023-02-03T08:55:01.906Z,100.00
2023-02-03T08:57:36.674Z,100.00
2023-02-03T09:00:06.356Z,100.00
2023-02-03T09:02:33.432Z,100.00
2023-02-03T09:05:00.386Z,100.00
2023-02-03T09:07:27.590Z,100.00
2023-02-03T09:09:54.409Z,100.00
2023-02-03T09:12:21.252Z,100.00
2023-02-03T09:14:48.026Z,100.00
2023-02-03T09:17:15.369Z,100.00
2023-02-03T09:19:42.176Z,100.00
2023-02-03T09:22:09.040Z,100.00
2023-02-03T09:24:36.352Z,100.00
2023-02-03T09:27:03.202Z,100.00
2023-02-03T09:29:30.288Z,100.00
2023-02-03T09:31:57.274Z,100.00
2023-02-03T09:34:24.171Z,100.00
2023-02-03T09:36:51.591Z,100.00
2023-02-03T09:39:18.628Z,100.00
2023-02-03T09:42:04.392Z,100.00
2023-02-03T09:45:25.874Z,100.00
2023-02-03T09:47:55.611Z,100.00
2023-02-03T09:50:28.313Z,100.00
2023-02-03T09:52:56.798Z,100.00
2023-02-03T09:55:43.611Z,100.00
2023-02-03T09:58:23.245Z,100.00
2023-02-03T10:01:06.757Z,99.50
2023-02-03T10:04:00.752Z,99.10
2023-02-03T10:06:35.520Z,98.89
2023-02-03T10:10:15.272Z,98.35
2023-02-03T10:13:12.507Z,97.48
2023-02-03T10:16:10.323Z,97.13
2023-02-03T10:18:51.888Z,96.68
2023-02-03T10:21:29.427Z,96.17
2023-02-03T10:23:58.539Z,95.71
2023-02-03T10:26:29.851Z,95.72
2023-02-03T10:29:03.546Z,95.14
2023-02-03T10:31:36.708Z,95.16
2023-02-03T10:34:16.529Z,95.33
2023-02-03T10:36:57.450Z,94.68
2023-02-03T10:39:48.224Z,94.21
2023-02-03T10:42:16.606Z,93.88
2023-02-03T10:45:01.447Z,93.80
2023-02-03T10:47:43.997Z,93.52
2023-02-03T10:50:31.900Z,93.19
2023-02-03T10:53:36.319Z,92.95
2023-02-03T10:56:37.326Z,92.33
2023-02-03T10:59:06.887Z,92.16
2023-02-03T11:01:46.859Z,91.99
2023-02-03T11:04:31.256Z,91.75
2023-02-03T11:07:02.175Z,91.92
2023-02-03T11:09:41.059Z,91.71
2023-02-03T11:12:09.712Z,91.01
2023-02-03T11:14:39.676Z,91.10
2023-02-03T11:17:17.060Z,90.62
2023-02-03T11:19:48.112Z,90.35
2023-02-03T11:22:32.268Z,90.13
2023-02-03T11:25:02.793Z,90.16
2023-02-03T11:27:34.078Z,90.02
2023-02-03T11:30:13.999Z,89.71
2023-02-03T11:32:42.916Z,89.06
2023-02-03T11:35:24.183Z,88.68
2023-02-03T11:38:01.200Z,87.84
2023-02-03T11:40:34.290Z,87.63
2023-02-03T11:43:02.610Z,87.19
2023-02-03T11:45:45.614Z,86.70
2023-02-03T11:48:17.422Z,86.25
2023-02-03T11:51:05.438Z,85.97
2023-02-03T11:53:57.320Z,85.71
2023-02-03T11:56:39.421Z,84.77
2023-02-03T11:59:20.086Z,85.03
2023-02-03T12:02:12.079Z,84.73
2023-02-03T12:05:20.033Z,84.48
2023-02-03T12:08:08.353Z,85.31
2023-02-03T12:11:00.745Z,84.39
2023-02-03T12:13:50.119Z,85.01
2023-02-03T12:17:08.708Z,84.48
2023-02-03T12:19:39.201Z,84.28
2023-02-03T12:22:45.891Z,83.97
2023-02-03T12:25:58.461Z,83.75
2023-02-03T12:28:50.858Z,83.35
2023-02-03T12:31:35.032Z,83.39
2023-02-03T12:34:27.121Z,83.50
2023-02-03T12:37:15.386Z,83.57
2023-02-03T12:39:53.078Z,82.98
2023-02-03T12:42:29.308Z,83.36
2023-02-03T12:45:12.019Z,83.20
2023-02-03T12:47:51.861Z,82.80
2023-02-03T12:50:30.732Z,83.02
2023-02-03T12:53:07.547Z,82.75
2023-02-03T12:55:44.435Z,82.38
2023-02-03T12:58:22.277Z,82.99
2023-02-03T13:00:57.634Z,81.73
2023-02-03T13:03:54.218Z,81.46
2023-02-03T13:06:39.923Z,81.95
2023-02-03T13:09:18.743Z,82.35
2023-02-03T13:12:09.818Z,82.34
2023-02-03T13:14:47.302Z,81.47
2023-02-03T13:17:19.407Z,81.80
2023-02-03T13:19:53.526Z,81.28
2023-02-03T13:22:24.095Z,80.75
2023-02-03T13:25:05.385Z,81.00
2023-02-03T13:28:17.033Z,81.52
2023-02-03T13:31:01.589Z,81.74
2023-02-03T13:34:24.985Z,81.74
2023-02-03T13:37:03.563Z,81.71
2023-02-03T13:40:13.159Z,82.07
2023-02-03T13:42:55.402Z,82.00
2023-02-03T13:45:51.452Z,82.30
2023-02-03T13:48:24.880Z,82.30
2023-02-03T13:51:34.356Z,81.40
2023-02-03T13:54:26.852Z,81.64
2023-02-03T13:57:03.975Z,81.66
2023-02-03T13:59:43.806Z,81.91
2023-02-03T14:02:19.692Z,81.96
2023-02-03T14:04:46.717Z,82.44
2023-02-03T14:07:36.757Z,83.20
2023-02-03T14:10:12.537Z,82.97
2023-02-03T14:12:57.505Z,83.15
2023-02-03T14:15:33.181Z,83.32
2023-02-03T14:18:07.575Z,83.30
2023-02-03T14:20:41.567Z,83.48
2023-02-03T14:23:13.928Z,83.37
2023-02-03T14:25:49.302Z,82.81
2023-02-03T14:28:26.495Z,82.05
2023-02-03T14:31:18.970Z,83.04
2023-02-03T14:34:13.085Z,82.97
2023-02-03T14:36:45.194Z,82.90
2023-02-03T14:39:17.829Z,82.82
2023-02-03T14:42:05.169Z,82.54
2023-02-03T14:44:35.464Z,82.93
2023-02-03T14:47:34.750Z,82.64
2023-02-03T14:50:29.364Z,82.59
2023-02-03T14:53:11.079Z,82.35
2023-02-03T14:55:52.731Z,82.01
2023-02-03T14:58:49.712Z,82.26
2023-02-03T15:01:35.540Z,82.50
2023-02-03T15:04:11.615Z,82.28
2023-02-03T15:06:44.509Z,82.85
2023-02-03T15:09:26.738Z,82.52
2023-02-03T15:11:53.830Z,82.84
2023-02-03T15:14:27.187Z,83.35
2023-02-03T15:17:30.793Z,83.78
2023-02-03T15:19:57.628Z,82.80
2023-02-03T15:22:30.743Z,82.89
2023-02-03T15:25:04.631Z,82.98
2023-02-03T15:27:33.149Z,83.24
2023-02-03T15:30:27.563Z,82.41
2023-02-03T15:33:15.635Z,82.06
2023-02-03T15:35:45.789Z,82.04
2023-02-03T15:38:24.159Z,82.25
2023-02-03T15:40:58.060Z,82.34
2023-02-03T15:43:38.446Z,82.04
2023-02-03T15:46:28.053Z,81.95
2023-02-03T15:49:17.974Z,81.38
2023-02-03T15:51:50.907Z,81.59
2023-02-03T15:54:30.628Z,81.09
2023-02-03T15:57:03.031Z,81.03
2023-02-03T15:59:43.721Z,80.85
2023-02-03T16:02:21.122Z,80.87
2023-02-03T16:04:50.328Z,80.99
2023-02-03T16:07:29.767Z,81.15
2023-02-03T16:09:59.569Z,81.13
2023-02-03T16:12:32.438Z,81.52
2023-02-03T16:15:02.019Z,81.86
2023-02-03T16:17:30.266Z,81.44
2023-02-03T16:20:12.444Z,81.45
2023-02-03T16:22:45.863Z,81.51
2023-02-03T16:25:24.532Z,81.52
2023-02-03T16:28:22.937Z,81.41
2023-02-03T16:31:40.686Z,81.86
2023-02-03T16:34:34.840Z,81.54
2023-02-03T16:37:21.276Z,81.90
2023-02-03T16:40:06.461Z,82.09
2023-02-03T16:42:59.574Z,81.92
2023-02-03T16:45:45.385Z,81.93
2023-02-03T16:48:32.033Z,82.26
2023-02-03T16:51:07.533Z,82.53
2023-02-03T16:53:34.539Z,82.66
2023-02-03T16:56:04.625Z,82.55
2023-02-03T16:58:31.955Z,82.44
2023-02-03T17:01:01.754Z,82.33
2023-02-03T17:03:29.162Z,82.87
2023-02-03T17:05:57.641Z,82.98
2023-02-03T17:08:26.556Z,82.75
2023-02-03T17:10:53.725Z,82.94
2023-02-03T17:13:22.874Z,83.13
2023-02-03T17:15:55.356Z,83.33
2023-02-03T17:18:22.467Z,83.19
2023-02-03T17:20:49.631Z,83.20
2023-02-03T17:23:17.336Z,83.11
2023-02-03T17:25:46.956Z,83.25
2023-02-03T17:28:14.563Z,83.54
2023-02-03T17:30:41.834Z,83.46
2023-02-03T17:33:12.416Z,83.58
2023-02-03T17:35:44.678Z,83.32
2023-02-03T17:38:13.534Z,83.64
2023-02-03T17:54:12.957Z,84.11
2023-02-03T17:56:39.858Z,84.09
2023-02-03T17:59:06.666Z,84.17
2023-02-03T18:01:33.468Z,83.90
2023-02-03T18:04:05.681Z,84.39
2023-02-03T18:06:35.359Z,84.42
2023-02-03T18:09:07.913Z,84.08
2023-02-03T18:11:36.410Z,84.41
2023-02-03T18:14:05.560Z,84.05
2023-02-03T18:16:35.095Z,84.01
2023-02-03T18:19:05.684Z,84.00
2023-02-03T18:21:33.268Z,83.88
2023-02-03T18:24:02.049Z,84.33
2023-02-03T18:26:34.562Z,84.23
2023-02-03T18:29:02.633Z,84.01
2023-02-03T18:31:30.091Z,83.84
2023-02-03T18:34:01.444Z,83.73
2023-02-03T18:36:28.418Z,83.85
2023-02-03T18:38:55.194Z,83.76
2023-02-03T18:41:24.641Z,83.61
2023-02-03T18:43:51.946Z,83.90
2023-02-03T18:46:21.683Z,83.65
2023-02-03T18:48:49.008Z,83.71
2023-02-03T18:51:18.664Z,83.28
2023-02-03T18:53:46.902Z,83.37
2023-02-03T18:56:25.525Z,83.31
2023-02-03T18:58:52.909Z,83.41
2023-02-03T19:01:27.017Z,83.38
2023-02-03T19:04:00.768Z,83.85
2023-02-03T19:06:30.729Z,83.61
2023-02-03T19:08:59.480Z,83.73
2023-02-03T19:11:26.898Z,83.58
2023-02-03T19:13:53.977Z,83.76
2023-02-03T19:16:21.625Z,84.49
2023-02-03T19:18:48.816Z,84.09
2023-02-03T19:21:17.673Z,84.12
2023-02-03T19:23:44.772Z,84.25
2023-02-03T19:26:12.258Z,84.05
2023-02-03T19:28:40.578Z,84.11
2023-02-03T19:31:11.792Z,84.61
2023-02-03T19:33:38.674Z,84.70
2023-02-03T19:36:07.149Z,84.22
2023-02-03T19:38:35.306Z,84.30
2023-02-03T19:41:02.880Z,84.17
2023-02-03T19:43:32.986Z,84.68
2023-02-03T19:46:00.188Z,84.68
2023-02-03T19:48:27.087Z,84.71
2023-02-03T19:50:53.966Z,84.77
2023-02-03T19:53:21.716Z,84.76
2023-02-03T19:55:48.581Z,84.90
2023-02-03T19:58:15.756Z,85.22
2023-02-03T20:00:43.660Z,85.38
2023-02-03T20:03:11.102Z,85.28
2023-02-03T20:05:38.575Z,85.36
2023-02-03T20:08:06.344Z,85.89
2023-02-03T20:10:33.584Z,85.85
2023-02-03T20:13:00.903Z,86.01
2023-02-03T20:15:28.285Z,85.93
2023-02-03T20:17:55.315Z,86.06
2023-02-03T20:20:22.581Z,86.06
2023-02-03T20:22:50.075Z,86.69
2023-02-03T20:25:17.336Z,87.12
2023-02-03T20:27:44.319Z,86.82
2023-02-03T20:30:12.414Z,86.76
2023-02-03T20:32:39.903Z,88.01
2023-02-03T20:35:07.627Z,87.67
2023-02-03T20:37:36.285Z,87.35
2023-02-03T20:40:13.621Z,87.23
2023-02-03T20:42:41.178Z,87.41
2023-02-03T20:45:26.091Z,87.74
2023-02-03T20:47:53.045Z,87.96
2023-02-03T20:50:31.629Z,87.83
2023-02-03T20:53:13.743Z,87.85
2023-02-03T20:55:41.146Z,87.77
2023-02-03T20:58:18.368Z,88.28
2023-02-03T21:00:46.173Z,88.10
2023-02-03T21:03:34.911Z,88.18
2023-02-03T21:06:01.984Z,88.22
2023-02-03T21:08:29.151Z,88.55
2023-02-03T21:10:55.934Z,88.52
2023-02-03T21:13:26.366Z,88.61
2023-02-03T21:16:00.220Z,88.67
2023-02-03T21:18:39.193Z,88.48
2023-02-03T21:21:15.617Z,88.58
2023-02-03T21:23:47.323Z,89.31
2023-02-03T21:26:22.142Z,88.90
2023-02-03T21:28:55.374Z,89.88
2023-02-03T21:31:34.782Z,89.11
2023-02-03T21:34:35.448Z,89.36
2023-02-03T21:37:35.280Z,89.62
2023-02-03T21:40:02.049Z,89.48
2023-02-03T21:42:42.697Z,89.69
2023-02-03T21:45:19.478Z,89.36
2023-02-03T21:47:51.951Z,89.16
2023-02-03T21:50:41.324Z,89.48
2023-02-03T21:53:08.075Z,89.24
2023-02-03T21:55:41.428Z,89.40
2023-02-03T21:58:26.445Z,89.67
2023-02-03T22:00:56.437Z,89.35
2023-02-03T22:03:27.900Z,89.69
2023-02-03T22:06:20.810Z,89.86
2023-02-03T22:08:54.159Z,89.84
2023-02-03T22:11:23.832Z,89.74
2023-02-03T22:13:50.728Z,89.98
2023-02-03T22:16:18.639Z,90.14
2023-02-03T22:18:47.521Z,89.81
2023-02-03T22:21:15.567Z,90.19
2023-02-03T22:23:43.441Z,90.57
2023-02-03T22:26:11.733Z,90.50
2023-02-03T22:28:39.456Z,90.57
2023-02-03T22:31:07.893Z,90.45
2023-02-03T22:33:36.006Z,90.42
2023-02-03T22:36:04.183Z,90.58
2023-02-03T22:38:31.461Z,90.56
2023-02-03T22:40:58.619Z,90.92
2023-02-03T22:43:26.650Z,90.71
2023-02-03T22:45:54.306Z,90.68
2023-02-03T22:48:22.258Z,91.02
2023-02-03T22:50:49.027Z,91.15
2023-02-03T22:53:15.817Z,91.00
2023-02-03T22:55:43.497Z,91.32
2023-02-03T22:58:10.577Z,91.40
2023-02-03T23:00:37.433Z,91.05
2023-02-03T23:03:05.157Z,91.17
2023-02-03T23:05:32.097Z,91.50
2023-02-03T23:07:58.988Z,91.64
2023-02-03T23:10:31.291Z,91.29
2023-02-03T23:13:00.909Z,91.59
2023-02-03T23:15:29.124Z,91.42
2023-02-03T23:17:56.276Z,91.62
2023-02-03T23:20:23.111Z,91.56
2023-02-03T23:22:49.981Z,91.59
2023-02-03T23:25:17.000Z,91.75
2023-02-03T23:27:43.891Z,91.83
2023-02-03T23:30:11.673Z,91.92
2023-02-03T23:32:38.544Z,91.92
2023-02-03T23:35:24.259Z,92.18
2023-02-03T23:37:51.128Z,91.85
2023-02-03T23:40:18.353Z,91.83
2023-02-03T23:42:45.182Z,91.91
2023-02-03T23:45:12.793Z,92.01
2023-02-03T23:47:42.364Z,91.85
2023-02-03T23:50:13.810Z,92.09
2023-02-03T23:52:40.682Z,92.08
2023-02-03T23:55:13.035Z,92.08
2023-02-03T23:57:42.772Z,91.76
